Time;durP1;ratioP1;P1;durP2;ratioP2;P2;SDS_P1;SDS_P2;PMS_P1;PMS_P2;Temp;Humidity;BMP_temperature;BMP_pressure;BME280_temperature;BME280_humidity;BME280_pressure;Samples;Min_cycle;Max_cycle;Signal;HPM_P1;HPM_P2
2021/08/05 00:02:25;;;;;;;3.00;2.80;;;18.80;99.90;;;;;;9763774;30;20233;-82
2021/08/05 00:07:49;;;;;;;3.30;3.00;;;18.80;99.90;;;;;;9750665;30;20231;-82
2021/08/05 00:13:11;;;;;;;2.77;2.57;;;18.70;99.90;;;;;;9750725;30;20209;-82
2021/08/05 00:18:33;;;;;;;3.33;3.10;;;18.70;99.90;;;;;;9763169;30;20303;-82
2021/08/05 00:23:57;;;;;;;3.17;2.97;;;18.70;99.90;;;;;;9728598;30;20707;-82
2021/08/05 00:29:19;;;;;;;3.37;3.00;;;18.70;99.90;;;;;;9726661;30;20252;-82
2021/08/05 00:34:41;;;;;;;3.60;2.83;;;18.60;99.90;;;;;;9715232;30;20652;-82
2021/08/05 00:40:06;;;;;;;2.83;2.63;;;18.50;99.90;;;;;;9716202;30;20640;-82
2021/08/05 00:45:28;;;;;;;2.90;2.70;;;18.50;99.90;;;;;;9730160;30;20812;-82
2021/08/05 00:50:50;;;;;;;3.50;3.20;;;18.40;99.90;;;;;;9716607;30;20230;-82
2021/08/05 00:56:14;;;;;;;3.27;3.07;;;18.40;99.90;;;;;;9729622;30;20214;-82
2021/08/05 01:01:41;;;;;;;3.10;2.73;;;18.40;99.90;;;;;;9713287;30;21073;-81
2021/08/05 01:07:09;;;;;;;3.50;3.30;;;18.30;99.90;;;;;;9715285;30;20226;-82
2021/08/05 01:12:40;;;;;;;3.60;2.90;;;18.30;99.90;;;;;;9731364;30;20237;-82
2021/08/05 01:18:06;;;;;;;3.40;3.10;;;18.30;99.90;;;;;;9718464;30;20246;-82
2021/08/05 01:23:35;;;;;;;3.37;3.10;;;18.30;99.90;;;;;;9737418;30;20221;-82
2021/08/05 01:29:01;;;;;;;3.00;2.80;;;18.40;99.90;;;;;;9753807;30;20272;-82
2021/08/05 01:34:24;;;;;;;3.50;3.30;;;18.30;99.90;;;;;;9753524;30;20205;-82
2021/08/05 01:39:46;;;;;;;2.77;2.57;;;18.30;99.90;;;;;;9754320;30;20715;-82
2021/08/05 01:45:14;;;;;;;3.63;3.10;;;18.30;99.90;;;;;;9753914;30;20252;-82
2021/08/05 01:50:37;;;;;;;3.10;2.80;;;18.30;99.90;;;;;;9767785;30;20662;-82
2021/08/05 01:55:59;;;;;;;3.20;3.00;;;18.20;99.90;;;;;;9720833;30;20205;-82
2021/08/05 02:01:23;;;;;;;4.90;3.07;;;18.20;99.90;;;;;;9722556;30;20265;-82
2021/08/05 02:06:54;;;;;;;4.30;3.57;;;18.10;99.90;;;;;;9727116;30;20285;-82
2021/08/05 02:12:17;;;;;;;3.47;3.27;;;18.20;99.90;;;;;;9727201;30;20885;-82
2021/08/05 02:17:43;;;;;;;3.63;3.17;;;18.20;99.90;;;;;;9725973;30;20210;-82
2021/08/05 02:23:05;;;;;;;5.60;3.23;;;18.30;99.90;;;;;;9742753;30;20217;-81
2021/08/05 02:28:29;;;;;;;3.50;3.23;;;18.20;99.90;;;;;;9749091;30;20274;-82
2021/08/05 02:33:56;;;;;;;5.27;3.27;;;18.20;99.90;;;;;;9748563;30;20675;-82
2021/08/05 02:39:18;;;;;;;3.13;2.93;;;18.20;99.90;;;;;;9747837;30;20228;-82
2021/08/05 02:44:41;;;;;;;3.30;3.10;;;18.20;99.90;;;;;;9762227;30;20221;-81
2021/08/05 02:50:06;;;;;;;3.27;3.00;;;18.20;99.90;;;;;;9762667;30;20233;-82
2021/08/05 02:55:29;;;;;;;5.23;3.30;;;18.10;99.90;;;;;;9761688;30;20687;-82
2021/08/05 03:00:51;;;;;;;3.43;3.23;;;18.00;99.90;;;;;;9748376;30;20247;-81
2021/08/05 03:06:15;;;;;;;4.47;3.37;;;18.00;99.90;;;;;;9761814;30;20579;-81
2021/08/05 03:11:37;;;;;;;4.20;3.90;;;17.90;99.90;;;;;;9747369;30;20245;-82
2021/08/05 03:16:59;;;;;;;3.50;3.20;;;17.90;99.90;;;;;;9761862;30;20201;-82
2021/08/05 03:22:22;;;;;;;3.90;3.60;;;17.80;99.90;;;;;;9737413;30;20241;-82
2021/08/05 03:27:44;;;;;;;3.30;3.10;;;17.80;99.90;;;;;;9728402;30;20233;-82
2021/08/05 03:33:06;;;;;;;3.83;3.53;;;17.70;99.90;;;;;;9721967;30;20272;-81
2021/08/05 03:38:29;;;;;;;3.60;3.30;;;17.70;99.90;;;;;;9736182;30;20230;-82
2021/08/05 03:43:51;;;;;;;3.40;3.20;;;17.70;99.90;;;;;;9722136;30;20243;-81
2021/08/05 03:49:13;;;;;;;3.93;3.63;;;17.70;99.90;;;;;;9737045;30;20234;-81
2021/08/05 03:54:36;;;;;;;3.57;3.33;;;17.70;99.90;;;;;;9758354;30;20228;-82
2021/08/05 03:59:59;;;;;;;3.53;3.30;;;17.70;99.90;;;;;;9765949;30;20226;-82
2021/08/05 04:05:21;;;;;;;3.83;3.53;;;17.60;99.90;;;;;;9748354;30;20232;-82
2021/08/05 04:10:44;;;;;;;4.40;4.00;;;17.60;99.90;;;;;;9754693;30;20233;-82
2021/08/05 04:16:08;;;;;;;4.60;4.20;;;17.60;99.90;;;;;;9767546;30;20460;-82
2021/08/05 04:21:30;;;;;;;3.80;3.50;;;17.60;99.90;;;;;;9750810;30;20252;-82
2021/08/05 04:26:53;;;;;;;3.60;3.30;;;17.60;99.90;;;;;;9733504;30;20222;-82
2021/08/05 04:32:15;;;;;;;4.70;4.20;;;17.70;99.90;;;;;;9719718;30;20234;-82
2021/08/05 04:37:48;;;;;;;4.07;3.73;;;17.80;99.90;;;;;;9733819;30;20206;-82
2021/08/05 04:43:11;;;;;;;6.00;5.50;;;17.90;99.90;;;;;;9733496;30;20221;-82
2021/08/05 04:48:33;;;;;;;4.23;3.93;;;18.00;99.90;;;;;;9717844;30;20248;-82
2021/08/05 04:53:55;;;;;;;4.23;3.40;;;18.10;99.90;;;;;;9740677;30;20320;-82
2021/08/05 04:59:19;;;;;;;3.93;3.67;;;18.20;99.90;;;;;;9761253;30;20229;-82
2021/08/05 05:04:41;;;;;;;4.30;3.90;;;18.30;99.90;;;;;;9767840;30;20875;-82
2021/08/05 05:10:03;;;;;;;4.63;4.27;;;18.40;99.90;;;;;;9765674;30;20241;-82
2021/08/05 05:15:27;;;;;;;3.90;3.60;;;18.50;99.90;;;;;;9745965;30;20217;-83
2021/08/05 05:20:49;;;;;;;4.03;3.73;;;18.50;99.90;;;;;;9755236;30;20252;-83
2021/08/05 05:26:11;;;;;;;5.03;4.63;;;18.60;99.90;;;;;;9756075;30;20413;-82
2021/08/05 05:31:35;;;;;;;5.33;3.93;;;18.70;99.90;;;;;;9752170;30;20238;-82
2021/08/05 05:36:57;;;;;;;5.80;4.57;;;18.70;99.90;;;;;;9767501;30;20206;-82
2021/08/05 05:42:19;;;;;;;10.50;5.90;;;18.70;99.90;;;;;;9736456;30;20225;-82
2021/08/05 05:47:43;;;;;;;4.67;4.27;;;18.70;99.90;;;;;;9729308;30;20234;-82
2021/08/05 05:53:05;;;;;;;5.50;5.10;;;18.70;99.90;;;;;;9729816;30;20221;-82
2021/08/05 05:58:28;;;;;;;4.50;4.10;;;18.70;99.90;;;;;;9761631;30;20252;-82
2021/08/05 06:03:51;;;;;;;4.57;4.27;;;18.70;99.90;;;;;;9748945;30;20233;-82
2021/08/05 06:09:13;;;;;;;4.53;4.10;;;18.70;99.90;;;;;;9761306;30;20233;-82
2021/08/05 06:14:35;;;;;;;5.00;3.87;;;18.60;99.90;;;;;;9761103;30;20377;-81
2021/08/05 06:19:58;;;;;;;6.50;4.03;;;18.60;99.90;;;;;;9762017;30;20241;-82
2021/08/05 06:25:20;;;;;;;4.40;4.00;;;18.60;99.90;;;;;;9761954;30;20221;-82
2021/08/05 06:30:42;;;;;;;4.90;4.50;;;18.70;99.90;;;;;;9762092;30;20651;-82
2021/08/05 06:36:06;;;;;;;3.80;3.50;;;19.00;99.90;;;;;;9748690;30;20502;-82
2021/08/05 06:41:28;;;;;;;4.27;3.97;;;19.20;99.90;;;;;;9762561;30;20240;-82
2021/08/05 06:46:51;;;;;;;3.80;3.50;;;19.50;99.90;;;;;;9748737;30;20321;-82
2021/08/05 06:52:15;;;;;;;5.20;4.33;;;19.70;99.90;;;;;;9762367;30;20236;-82
2021/08/05 06:57:37;;;;;;;4.17;3.80;;;20.00;99.90;;;;;;9749148;30;20695;-82
2021/08/05 07:02:59;;;;;;;3.80;3.50;;;20.20;99.90;;;;;;9753683;30;20250;-82
2021/08/05 07:08:22;;;;;;;4.10;3.80;;;20.50;99.90;;;;;;9757559;30;20244;-82
2021/08/05 07:13:44;;;;;;;3.63;3.43;;;20.90;99.90;;;;;;9756849;30;20205;-83
2021/08/05 07:19:06;;;;;;;3.87;3.57;;;21.20;99.90;;;;;;9756774;30;20237;-82
2021/08/05 07:24:29;;;;;;;4.73;3.43;;;21.40;99.90;;;;;;9758525;30;20649;-83
2021/08/05 07:29:51;;;;;;;3.43;3.23;;;21.60;99.90;;;;;;9757769;30;20260;-82
2021/08/05 07:35:13;;;;;;;3.53;3.23;;;21.80;99.90;;;;;;9772741;30;20221;-82
2021/08/05 07:40:37;;;;;;;3.40;3.20;;;22.00;99.90;;;;;;9772227;30;20320;-83
2021/08/05 07:45:59;;;;;;;3.30;3.10;;;22.30;99.90;;;;;;9758301;30;20209;-83
2021/08/05 07:51:21;;;;;;;4.47;3.53;;;22.50;99.90;;;;;;9780555;30;20237;-83
2021/08/05 07:56:44;;;;;;;3.00;2.80;;;22.70;99.90;;;;;;9757804;30;20209;-83
2021/08/05 08:02:06;;;;;;;3.73;3.37;;;22.80;99.90;;;;;;9770520;30;20236;-83
2021/08/05 08:07:28;;;;;;;2.93;2.73;;;22.90;99.90;;;;;;9757248;30;20230;-83
2021/08/05 08:12:51;;;;;;;3.47;3.17;;;22.90;99.90;;;;;;9757426;30;20277;-83
2021/08/05 08:18:14;;;;;;;2.80;2.67;;;22.80;99.90;;;;;;9750491;30;20256;-82
2021/08/05 08:23:36;;;;;;;3.37;3.10;;;22.60;99.90;;;;;;9749548;30;20221;-82
2021/08/05 08:28:59;;;;;;;5.10;3.17;;;22.20;99.90;;;;;;9762833;30;20613;-82
2021/08/05 08:34:21;;;;;;;2.97;2.83;;;21.90;99.90;;;;;;9748923;30;20642;-82
2021/08/05 08:39:43;;;;;;;3.77;3.57;;;21.90;99.90;;;;;;9748319;30;20225;-82
2021/08/05 08:45:08;;;;;;;3.40;3.13;;;21.80;99.90;;;;;;9748474;30;20217;-82
2021/08/05 08:50:33;;;;;;;3.80;3.57;;;21.80;99.90;;;;;;9748344;30;20239;-82
2021/08/05 08:55:56;;;;;;;3.30;3.10;;;21.90;99.90;;;;;;9760732;30;20245;-82
2021/08/05 09:01:19;;;;;;;3.13;2.90;;;22.00;99.90;;;;;;9761540;30;20285;-82
2021/08/05 09:06:42;;;;;;;3.03;2.80;;;22.10;99.90;;;;;;9748279;30;20231;-82
2021/08/05 09:12:08;;;;;;;2.90;2.70;;;22.50;99.90;;;;;;9758535;30;20268;-83
2021/08/05 09:17:33;;;;;;;3.43;3.17;;;22.80;99.90;;;;;;9747967;30;20675;-83
2021/08/05 09:22:54;;;;;;;2.40;2.30;;;23.10;99.90;;;;;;9735136;30;20218;-82
2021/08/05 09:28:17;;;;;;;2.80;2.60;;;23.30;99.90;;;;;;9714392;30;20241;-82
2021/08/05 09:33:40;;;;;;;2.93;2.73;;;23.30;99.90;;;;;;9715207;30;20276;-82
2021/08/05 09:39:13;;;;;;;3.40;3.20;;;23.30;99.90;;;;;;9727367;30;20712;-82
2021/08/05 09:44:43;;;;;;;3.23;2.27;;;23.80;99.90;;;;;;9714812;30;20213;-83
2021/08/05 09:50:08;;;;;;;3.03;2.83;;;24.40;99.90;;;;;;9727247;30;20246;-82
2021/08/05 09:55:30;;;;;;;2.40;2.30;;;24.80;99.90;;;;;;9748468;30;20217;-83
2021/08/05 10:00:52;;;;;;;3.50;3.20;;;24.80;99.90;;;;;;9750470;30;20220;-82
2021/08/05 10:06:16;;;;;;;2.30;2.20;;;24.80;99.90;;;;;;9750035;30;20243;-83
2021/08/05 10:11:38;;;;;;;2.60;2.50;;;24.90;99.80;;;;;;9751457;30;20229;-82
2021/08/05 10:17:00;;;;;;;2.73;2.63;;;24.70;99.90;;;;;;9752385;30;20267;-82
2021/08/05 10:22:25;;;;;;;2.30;2.20;;;24.50;99.90;;;;;;9750885;30;20244;-82
2021/08/05 10:27:48;;;;;;;2.43;2.33;;;24.30;99.90;;;;;;9752235;30;20536;-83
2021/08/05 10:33:11;;;;;;;2.63;2.53;;;24.20;99.90;;;;;;9732768;30;20244;-82
2021/08/05 10:44:38;;;;;;;2.27;2.17;;;24.30;99.90;;;;;;9730090;30;20344;-82
2021/08/05 10:50:03;;;;;;;2.30;2.20;;;24.40;99.90;;;;;;9728770;30;20288;-83
2021/08/05 10:55:35;;;;;;;2.40;2.30;;;24.40;99.90;;;;;;9744894;30;20221;-82
2021/08/05 11:01:08;;;;;;;2.00;1.90;;;24.30;99.90;;;;;;9761426;30;20605;-83
2021/08/05 11:06:32;;;;;;;2.10;2.00;;;24.40;99.90;;;;;;9749223;30;20679;-82
2021/08/05 11:11:57;;;;;;;2.40;2.30;;;24.50;99.90;;;;;;9749280;30;20239;-84
2021/08/05 11:17:19;;;;;;;2.10;2.00;;;24.70;99.90;;;;;;9745480;30;20201;-82
2021/08/05 11:22:41;;;;;;;2.10;2.00;;;24.60;99.90;;;;;;9725509;30;20755;-83
2021/08/05 11:28:22;;;;;;;2.10;2.00;;;24.50;99.90;;;;;;9733258;30;20225;-83
2021/08/05 11:33:52;;;;;;;2.30;2.20;;;24.50;99.90;;;;;;9743586;30;20210;-83
2021/08/05 11:39:24;;;;;;;4.70;2.10;;;24.70;99.90;;;;;;9757261;30;20222;-83
2021/08/05 11:44:52;;;;;;;2.10;2.00;;;24.90;98.50;;;;;;9744826;30;20438;-83
2021/08/05 11:50:23;;;;;;;2.50;2.40;;;24.90;99.90;;;;;;9743187;30;20320;-83
2021/08/05 11:55:47;;;;;;;2.23;2.13;;;24.90;99.90;;;;;;9734100;30;20213;-83
2021/08/05 12:01:13;;;;;;;2.53;2.33;;;24.80;99.90;;;;;;9730848;30;20230;-83
2021/08/05 12:06:36;;;;;;;2.10;2.00;;;24.60;99.90;;;;;;9750240;30;20214;-83
2021/08/05 12:11:59;;;;;;;2.30;2.10;;;24.70;99.90;;;;;;9763795;30;20649;-83
2021/08/05 12:17:35;;;;;;;2.30;2.20;;;24.70;99.90;;;;;;9763382;30;20206;-83
2021/08/05 12:23:04;;;;;;;2.30;2.20;;;24.60;99.80;;;;;;9743115;30;20227;-83
2021/08/05 12:28:26;;;;;;;2.63;2.43;;;24.50;99.90;;;;;;9763247;30;20711;-83
2021/08/05 12:33:50;;;;;;;3.00;2.80;;;24.40;99.90;;;;;;9737553;30;20206;-83
2021/08/05 12:39:12;;;;;;;2.07;1.97;;;24.40;99.90;;;;;;9731020;30;20283;-82
2021/08/05 12:44:35;;;;;;;2.33;2.13;;;24.40;99.90;;;;;;9743727;30;20210;-82
2021/08/05 12:50:05;;;;;;;2.17;2.07;;;24.40;99.90;;;;;;9743352;30;20230;-82
2021/08/05 12:55:27;;;;;;;2.10;2.00;;;24.30;98.40;;;;;;9766103;30;20240;-83
2021/08/05 13:00:50;;;;;;;2.70;2.50;;;24.10;99.90;;;;;;9781893;30;20220;-83
2021/08/05 13:06:13;;;;;;;2.00;1.90;;;23.90;99.90;;;;;;9800664;30;20215;-83
2021/08/05 13:11:37;;;;;;;2.20;2.10;;;23.70;99.90;;;;;;9800067;30;20610;-83
2021/08/05 13:17:05;;;;;;;1.97;1.87;;;23.50;99.90;;;;;;9805845;30;20209;-82
2021/08/05 13:22:39;;;;;;;2.20;2.10;;;23.30;99.90;;;;;;9775153;30;20252;-82
2021/08/05 13:28:11;;;;;;;2.47;2.37;;;23.10;99.90;;;;;;9760674;30;20225;-82
2021/08/05 13:33:33;;;;;;;2.60;2.50;;;23.00;99.90;;;;;;9761164;30;20659;-83
2021/08/05 13:38:57;;;;;;;2.30;2.20;;;23.00;99.90;;;;;;9746997;30;20321;-83
2021/08/05 13:44:19;;;;;;;3.07;2.30;;;23.20;99.90;;;;;;9741415;30;20206;-83
2021/08/05 13:49:42;;;;;;;2.40;2.20;;;23.40;99.90;;;;;;9736951;30;20234;-82
2021/08/05 13:55:06;;;;;;;2.13;1.97;;;23.50;99.90;;;;;;9740297;30;20307;-83
2021/08/05 14:00:28;;;;;;;2.10;2.00;;;23.40;99.90;;;;;;9740733;30;20216;-82
2021/08/05 14:05:50;;;;;;;2.33;2.00;;;23.40;99.90;;;;;;9743284;30;20221;-83
2021/08/05 14:11:14;;;;;;;1.90;1.80;;;23.30;99.90;;;;;;9756308;30;20232;-83
2021/08/05 14:16:36;;;;;;;1.90;1.80;;;23.10;99.90;;;;;;9755898;30;20672;-83
2021/08/05 14:21:58;;;;;;;1.70;1.60;;;23.10;99.90;;;;;;9756404;30;20249;-83
2021/08/05 14:27:21;;;;;;;2.17;2.07;;;23.30;99.90;;;;;;9742924;30;20213;-83
2021/08/05 14:32:43;;;;;;;1.97;1.87;;;23.40;99.90;;;;;;9742608;30;20424;-83
2021/08/05 14:38:05;;;;;;;2.60;2.10;;;23.60;99.90;;;;;;9744193;30;20229;-83
2021/08/05 14:43:29;;;;;;;2.00;1.90;;;23.70;99.90;;;;;;9756922;30;20213;-83
2021/08/05 14:48:51;;;;;;;2.00;1.90;;;23.60;99.90;;;;;;9757219;30;20237;-83
2021/08/05 14:54:13;;;;;;;1.70;1.60;;;23.70;99.90;;;;;;9718957;30;20214;-83
2021/08/05 14:59:37;;;;;;;2.63;2.53;;;23.80;99.90;;;;;;9708459;30;20222;-83
2021/08/05 15:04:59;;;;;;;2.80;2.60;;;23.80;99.90;;;;;;9707742;30;20214;-83
2021/08/05 15:10:21;;;;;;;2.33;2.23;;;23.70;99.90;;;;;;9720524;30;20238;-83
2021/08/05 15:15:45;;;;;;;2.47;2.33;;;23.70;99.90;;;;;;9720503;30;20213;-83
2021/08/05 15:21:07;;;;;;;2.00;1.90;;;23.70;99.90;;;;;;9724238;30;20824;-83
2021/08/05 15:26:29;;;;;;;2.07;1.93;;;23.70;99.90;;;;;;9726619;30;20253;-83
2021/08/05 15:31:53;;;;;;;2.07;1.97;;;23.80;99.90;;;;;;9692512;30;20242;-83
2021/08/05 15:37:15;;;;;;;3.00;2.77;;;23.80;99.90;;;;;;9679858;30;20289;-83
2021/08/05 15:42:17;;;;;;;2.30;2.13;;;23.80;99.90;;;;;;9679180;30;20230;-82
2021/08/05 15:47:20;;;;;;;2.50;2.40;;;23.70;99.90;;;;;;9679004;30;20211;-83
2021/08/05 15:52:22;;;;;;;2.10;2.00;;;23.60;99.90;;;;;;9669142;30;20255;-83
2021/08/05 15:57:24;;;;;;;2.60;2.40;;;23.50;99.90;;;;;;9644928;30;20600;-83
2021/08/05 16:02:28;;;;;;;2.60;2.40;;;23.30;99.90;;;;;;9657663;30;20235;-83
2021/08/05 16:07:30;;;;;;;3.30;2.63;;;23.10;99.90;;;;;;9662759;30;20708;-82
2021/08/05 16:12:32;;;;;;;4.30;4.00;;;22.80;99.90;;;;;;9672829;30;20304;-82
2021/08/05 16:17:36;;;;;;;7.07;6.47;;;22.20;99.90;;;;;;9699090;30;20634;-82
2021/08/05 16:22:39;;;;;;;4.20;4.00;;;21.70;99.90;;;;;;9700914;30;20239;-82
2021/08/05 16:27:41;;;;;;;5.20;4.90;;;21.10;99.90;;;;;;9685097;30;20278;-83
2021/08/05 16:32:45;;;;;;;5.70;5.40;;;20.70;99.90;;;;;;9683822;30;20263;-82
2021/08/05 16:37:47;;;;;;;5.97;5.47;;;20.30;99.90;;;;;;9669885;30;20325;-82
2021/08/05 16:42:49;;;;;;;5.20;4.90;;;20.10;99.90;;;;;;9699188;30;20577;-82
2021/08/05 16:47:53;;;;;;;4.97;4.67;;;19.90;99.90;;;;;;9668331;30;20234;-82
2021/08/05 16:52:55;;;;;;;5.30;4.80;;;19.70;99.90;;;;;;9668530;30;20217;-82
2021/08/05 16:57:57;;;;;;;4.70;4.40;;;19.50;99.90;;;;;;9682680;30;20337;-81
2021/08/05 17:03:00;;;;;;;3.87;3.67;;;19.40;99.90;;;;;;9683010;30;20289;-82
2021/08/05 17:08:03;;;;;;;6.63;3.77;;;19.40;99.90;;;;;;9697952;30;20688;-82
2021/08/05 17:13:05;;;;;;;3.63;3.43;;;19.30;99.90;;;;;;9681892;30;20203;-82
2021/08/05 17:18:09;;;;;;;3.63;3.43;;;19.30;99.90;;;;;;9695434;30;20637;-82
2021/08/05 17:23:12;;;;;;;3.40;3.20;;;19.30;99.90;;;;;;9681973;30;20215;-82
2021/08/05 17:28:14;;;;;;;4.17;3.80;;;19.40;99.90;;;;;;9663203;30;20681;-82
2021/08/05 17:33:17;;;;;;;3.63;3.43;;;19.50;99.90;;;;;;9664089;30;20188;-82
2021/08/05 17:38:20;;;;;;;3.23;3.13;;;19.60;99.90;;;;;;9648564;30;20286;-82
2021/08/05 17:43:22;;;;;;;3.77;3.47;;;19.60;99.90;;;;;;9663389;30;20229;-82
2021/08/05 17:48:25;;;;;;;4.13;3.03;;;19.60;99.90;;;;;;9662870;30;20235;-83
2021/08/05 17:53:27;;;;;;;6.10;5.70;;;19.60;99.90;;;;;;9667694;30;20228;-83
2021/08/05 17:58:29;;;;;;;4.70;4.30;;;19.60;99.90;;;;;;9700679;30;20314;-83
2021/08/05 18:03:33;;;;;;;4.10;3.17;;;19.70;99.90;;;;;;9684973;30;20221;-82
2021/08/05 18:08:35;;;;;;;7.13;5.73;;;19.70;99.90;;;;;;9686356;30;20756;-82
2021/08/05 18:13:38;;;;;;;44.80;31.30;;;19.60;99.90;;;;;;9673640;30;20693;-83
2021/08/05 18:18:41;;;;;;;12.80;11.43;;;19.70;99.90;;;;;;9673678;30;20238;-83
2021/08/05 18:23:43;;;;;;;4.00;3.70;;;19.70;99.90;;;;;;9666214;30;20221;-83
2021/08/05 18:28:46;;;;;;;2.50;2.40;;;19.70;99.90;;;;;;9637989;30;20235;-80
2021/08/05 18:33:49;;;;;;;2.80;2.70;;;19.60;99.90;;;;;;9682569;30;20298;-82
2021/08/05 18:38:51;;;;;;;2.67;2.47;;;19.60;99.90;;;;;;9692223;30;20293;-83
2021/08/05 18:43:53;;;;;;;3.13;2.83;;;19.60;99.90;;;;;;9661067;30;20226;-83
2021/08/05 18:48:57;;;;;;;2.80;2.60;;;19.50;99.90;;;;;;9688055;30;20249;-83
2021/08/05 18:54:00;;;;;;;2.70;2.60;;;19.50;99.90;;;;;;9666224;30;20275;-85
2021/08/05 18:59:02;;;;;;;2.67;2.47;;;19.50;99.90;;;;;;9659038;30;20666;-82
2021/08/05 19:04:07;;;;;;;2.87;2.77;;;19.40;99.90;;;;;;9661942;30;20263;-83
2021/08/05 19:09:09;;;;;;;3.43;3.23;;;19.40;99.90;;;;;;9669632;30;20325;-82
2021/08/05 19:14:11;;;;;;;3.03;2.83;;;19.40;99.90;;;;;;9701519;30;20228;-82
2021/08/05 19:19:14;;;;;;;3.17;2.97;;;19.30;99.90;;;;;;9694902;30;20285;-82
2021/08/05 19:24:17;;;;;;;3.33;3.03;;;19.30;99.90;;;;;;9642563;30;20223;-82
2021/08/05 19:29:20;;;;;;;4.20;3.93;;;19.30;99.90;;;;;;9662540;30;20231;-83
2021/08/05 19:34:23;;;;;;;3.47;3.27;;;19.30;99.90;;;;;;9646108;30;20686;-83
2021/08/05 19:39:25;;;;;;;4.77;4.20;;;19.30;99.90;;;;;;9660139;30;20235;-83
2021/08/05 19:44:27;;;;;;;8.23;7.53;;;19.30;99.90;;;;;;9643549;30;20620;-83
2021/08/05 19:49:31;;;;;;;3.80;3.60;;;19.30;99.90;;;;;;9657583;30;20259;-82
2021/08/05 19:54:34;;;;;;;2.87;2.67;;;19.30;99.90;;;;;;9687945;30;20223;-83
2021/08/05 19:59:36;;;;;;;4.63;2.33;;;19.30;99.90;;;;;;9680254;30;20229;-83
2021/08/05 20:04:40;;;;;;;2.47;2.27;;;19.30;99.90;;;;;;9680513;30;20673;-83
2021/08/05 20:09:42;;;;;;;2.07;1.87;;;19.30;99.90;;;;;;9696210;30;20261;-83
2021/08/05 20:14:44;;;;;;;2.00;1.90;;;19.30;99.90;;;;;;9694757;30;20293;-82
2021/08/05 20:19:47;;;;;;;2.47;2.37;;;19.30;99.90;;;;;;9679002;30;20238;-82
2021/08/05 20:24:49;;;;;;;3.17;2.97;;;19.30;99.90;;;;;;9693065;30;20279;-83
2021/08/05 20:29:51;;;;;;;2.10;2.00;;;19.40;99.90;;;;;;9681601;30;20237;-83
2021/08/05 20:34:55;;;;;;;1.73;1.63;;;19.30;99.90;;;;;;9678625;30;20602;-82
2021/08/05 20:39:57;;;;;;;1.80;1.70;;;19.40;99.90;;;;;;9694318;30;20298;-83
2021/08/05 20:44:59;;;;;;;1.60;1.50;;;19.40;99.90;;;;;;9695657;30;20195;-83
2021/08/05 20:50:03;;;;;;;1.30;1.30;;;19.40;99.90;;;;;;9678565;30;20246;-82
2021/08/05 20:55:06;;;;;;;1.80;1.70;;;19.40;99.90;;;;;;9635409;30;20258;-83
2021/08/05 21:00:09;;;;;;;1.70;1.60;;;19.40;99.90;;;;;;9658747;30;20235;-82
2021/08/05 21:05:13;;;;;;;1.90;1.70;;;19.30;99.90;;;;;;9659797;30;20218;-83
2021/08/05 21:10:15;;;;;;;2.40;1.50;;;19.30;99.90;;;;;;9643436;30;20254;-82
2021/08/05 21:15:17;;;;;;;1.23;1.23;;;19.20;99.90;;;;;;9642149;30;20207;-83
2021/08/05 21:20:21;;;;;;;1.50;1.43;;;19.10;99.90;;;;;;9644615;30;20249;-82
2021/08/05 21:25:23;;;;;;;1.60;1.50;;;19.10;99.90;;;;;;9657968;30;20227;-83
2021/08/05 21:30:25;;;;;;;2.90;1.30;;;19.00;99.90;;;;;;9630551;30;20239;-82
2021/08/05 21:35:28;;;;;;;1.40;1.30;;;19.00;99.90;;;;;;9644130;30;20215;-83
2021/08/05 21:40:31;;;;;;;1.23;1.23;;;19.00;99.90;;;;;;9684189;30;20603;-83
2021/08/05 21:45:33;;;;;;;1.57;1.47;;;19.00;99.90;;;;;;9646919;30;20585;-82
2021/08/05 21:50:38;;;;;;;1.40;1.30;;;19.10;99.90;;;;;;9672561;30;20640;-83
2021/08/05 21:55:40;;;;;;;1.20;1.20;;;19.00;99.90;;;;;;9663051;30;20321;-82
2021/08/05 22:00:42;;;;;;;1.43;1.33;;;19.00;99.90;;;;;;9672615;30;20226;-83
2021/08/05 22:05:46;;;;;;;1.30;1.30;;;19.00;99.90;;;;;;9687690;30;20219;-83
2021/08/05 22:10:48;;;;;;;1.30;1.30;;;18.90;99.90;;;;;;9679107;30;20678;-83
2021/08/05 22:15:50;;;;;;;1.60;1.50;;;18.90;99.90;;;;;;9679733;30;20653;-83
2021/08/05 22:20:53;;;;;;;1.40;1.30;;;19.00;99.90;;;;;;9698045;30;20309;-83
2021/08/05 22:25:55;;;;;;;1.70;1.60;;;19.00;99.90;;;;;;9663104;30;20220;-83
2021/08/05 22:30:58;;;;;;;1.50;1.40;;;19.00;99.90;;;;;;9631538;30;20298;-82
2021/08/05 22:36:01;;;;;;;1.73;1.20;;;19.10;99.90;;;;;;9646201;30;20214;-83
2021/08/05 22:41:03;;;;;;;1.67;1.57;;;19.10;99.90;;;;;;9648628;30;20223;-83
2021/08/05 22:46:05;;;;;;;1.30;1.30;;;19.00;99.90;;;;;;9671494;30;20211;-83
2021/08/05 22:51:09;;;;;;;1.70;1.60;;;19.00;99.90;;;;;;9685324;30;20702;-83
2021/08/05 22:56:12;;;;;;;1.40;1.40;;;18.90;99.90;;;;;;9660703;30;20247;-83
2021/08/05 23:01:14;;;;;;;1.70;1.60;;;18.80;99.90;;;;;;9659572;30;20227;-83
2021/08/05 23:06:17;;;;;;;1.23;1.23;;;18.80;99.90;;;;;;9657695;30;20219;-82
2021/08/05 23:11:19;;;;;;;1.70;1.60;;;18.80;99.90;;;;;;9657658;30;20229;-83
2021/08/05 23:16:22;;;;;;;5.03;1.93;;;18.80;99.90;;;;;;9671188;30;20207;-83
2021/08/05 23:21:42;;;;;;;1.40;1.30;;;18.70;99.90;;;;;;9714086;25;20247;-84
2021/08/05 23:26:47;;;;;;;1.37;1.27;;;18.60;99.90;;;;;;9690512;30;20664;-84
2021/08/05 23:31:52;;;;;;;1.50;1.40;;;18.60;99.90;;;;;;9694749;30;20325;-84
2021/08/05 23:37:07;;;;;;;5.17;1.57;;;18.60;99.90;;;;;;9723358;30;20218;-85
2021/08/05 23:42:11;;;;;;;1.50;1.50;;;18.50;99.90;;;;;;9695238;30;20230;-83
2021/08/05 23:47:14;;;;;;;2.13;1.43;;;18.50;99.90;;;;;;9686581;30;20211;-84
2021/08/05 23:52:21;;;;;;;1.43;1.43;;;18.50;99.90;;;;;;9693790;30;20731;-84
2021/08/05 23:57:24;;;;;;;1.50;1.40;;;18.50;99.90;;;;;;9714970;30;20268;-84
